Time;durP1;ratioP1;P1;durP2;ratioP2;P2;SDS_P1;SDS_P2;PMS_P1;PMS_P2;Temp;Humidity;BMP_temperature;BMP_pressure;BME280_temperature;BME280_humidity;BME280_pressure;Samples;Min_cycle;Max_cycle;Signal;HPM_P1;HPM_P2
2023/12/26 00:01:00;;;;;;;26.60;12.40;;;;;;;-142.57;100.00;55826.31;4943095;28;20046;-82
2023/12/26 00:03:26;;;;;;;29.33;14.52;;;;;;;-142.57;100.00;55854.59;4954288;29;20043;-81
2023/12/26 00:05:51;;;;;;;29.50;12.27;;;;;;;-142.57;100.00;55907.13;4940394;29;20480;-80
2023/12/26 00:08:17;;;;;;;30.63;13.45;;;;;;;-142.57;100.00;55911.16;4937947;29;20042;-80
2023/12/26 00:10:43;;;;;;;29.58;12.95;;;;;;;-142.57;100.00;55935.41;4937216;29;20039;-81
2023/12/26 00:13:08;;;;;;;28.70;13.95;;;;;;;-142.57;100.00;55939.47;4955360;29;20051;-81
2023/12/26 00:15:34;;;;;;;28.73;13.18;;;;;;;-142.57;100.00;55935.41;4946946;28;20089;-83
2023/12/26 00:18:00;;;;;;;29.65;11.77;;;;;;;-142.57;100.00;55961.69;4954725;29;20446;-84
2023/12/26 00:20:26;;;;;;;27.48;10.45;;;;;;;-142.57;100.00;55939.47;4946817;29;20028;-82
2023/12/26 00:22:51;;;;;;;31.17;11.10;;;;;;;-142.57;100.00;55901.06;4950938;28;20180;-81
2023/12/26 00:25:17;;;;;;;23.63;10.75;;;;;;;-142.57;100.00;55890.97;4939396;29;20047;-84
2023/12/26 00:27:42;;;;;;;21.63;10.35;;;;;;;-142.57;100.00;55929.34;4944125;29;20112;-79
2023/12/26 00:30:08;;;;;;;26.08;9.00;;;;;;;-142.57;100.00;55951.59;4939482;29;20024;-79
2023/12/26 00:32:34;;;;;;;15.40;7.57;;;;;;;-142.57;100.00;55911.16;4944454;29;20103;-78
2023/12/26 00:35:00;;;;;;;21.42;8.07;;;;;;;-142.57;100.00;55969.78;4943531;28;20604;-77
2023/12/26 00:37:26;;;;;;;18.45;7.38;;;;;;;-142.57;100.00;55886.91;4937704;29;20119;-77
2023/12/26 00:39:52;;;;;;;19.00;7.32;;;;;;;-142.57;100.00;55947.53;4937674;29;20083;-79
2023/12/26 00:42:18;;;;;;;22.25;8.15;;;;;;;-142.57;100.00;55901.06;4937989;29;20407;-82
2023/12/26 00:44:44;;;;;;;16.85;7.32;;;;;;;-142.57;100.00;55907.13;4938243;29;20565;-82
2023/12/26 00:47:09;;;;;;;21.45;7.15;;;;;;;-142.57;100.00;55866.72;4942019;29;20112;-82
2023/12/26 00:49:36;;;;;;;19.75;8.35;;;;;;;-142.57;100.00;55953.59;4936924;29;20031;-82
2023/12/26 00:52:01;;;;;;;16.48;7.35;;;;;;;-142.57;100.00;55935.41;4938072;29;20498;-78
2023/12/26 00:54:27;;;;;;;19.60;7.43;;;;;;;-142.57;100.00;55965.72;4936228;29;20031;-80
2023/12/26 00:56:53;;;;;;;20.75;8.48;;;;;;;-142.57;100.00;55927.34;4934864;29;20040;-79
2023/12/26 00:59:19;;;;;;;20.17;8.02;;;;;;;-142.57;100.00;55923.28;4954272;29;20035;-79
2023/12/26 01:01:45;;;;;;;20.05;8.23;;;;;;;-142.57;100.00;55919.25;4943875;28;20401;-79
2023/12/26 01:04:10;;;;;;;24.88;8.52;;;;;;;-142.57;100.00;55945.53;4938298;29;20027;-79
2023/12/26 01:06:36;;;;;;;15.75;7.20;;;;;;;-142.57;100.00;55929.34;4938224;28;20039;-78
2023/12/26 01:09:01;;;;;;;18.10;7.60;;;;;;;-142.57;100.00;55915.22;4950317;29;20100;-80
2023/12/26 01:11:27;;;;;;;19.60;8.35;;;;;;;-142.57;100.00;55878.84;4948522;29;20059;-82
2023/12/26 01:13:54;;;;;;;21.63;9.15;;;;;;;-142.57;100.00;55899.03;4953956;28;20027;-81
2023/12/26 01:16:20;;;;;;;17.45;8.45;;;;;;;-142.57;100.00;55882.88;4944220;29;20108;-82
2023/12/26 01:18:46;;;;;;;22.45;8.70;;;;;;;-142.57;100.00;55899.03;4947989;29;20027;-79
2023/12/26 01:21:11;;;;;;;14.80;6.63;;;;;;;-142.57;100.00;55895.00;4954001;28;20482;-77
2023/12/26 01:23:37;;;;;;;14.25;5.72;;;;;;;-142.57;100.00;55957.66;4953168;29;20039;-79
2023/12/26 01:26:03;;;;;;;15.32;7.13;;;;;;;-142.57;100.00;55903.09;4940772;29;20067;-80
2023/12/26 01:28:29;;;;;;;12.27;6.32;;;;;;;-142.57;100.00;55917.22;4937808;29;20404;-79
2023/12/26 01:30:54;;;;;;;14.95;7.10;;;;;;;-142.57;100.00;55931.38;4942136;29;20099;-78
2023/12/26 01:33:20;;;;;;;19.00;7.25;;;;;;;-142.57;100.00;55955.63;4949115;29;20486;-81
2023/12/26 01:35:45;;;;;;;16.15;7.30;;;;;;;-142.57;100.00;55975.84;4953753;29;20106;-78
2023/12/26 01:38:11;;;;;;;15.93;6.60;;;;;;;-142.57;100.00;55961.69;4953053;28;20450;-82
2023/12/26 01:40:40;;;;;;;13.77;6.30;;;;;;;-142.57;100.00;55989.97;4944641;28;20037;-78
2023/12/26 01:43:06;;;;;;;13.20;5.47;;;;;;;-142.57;100.00;55945.53;4951879;29;20039;-80
2023/12/26 01:45:32;;;;;;;14.90;5.75;;;;;;;-142.57;100.00;55959.66;4945380;29;20043;-78
2023/12/26 01:47:59;;;;;;;14.77;5.75;;;;;;;-142.57;100.00;55955.63;4950376;29;20418;-79
2023/12/26 01:50:25;;;;;;;14.13;4.57;;;;;;;-142.57;100.00;55985.94;4935481;29;20036;-78
2023/12/26 01:52:52;;;;;;;13.23;4.45;;;;;;;-142.57;100.00;55951.59;4935340;29;20074;-79
2023/12/26 01:55:18;;;;;;;14.13;4.78;;;;;;;-142.57;100.00;55987.94;4933847;29;20110;-78
2023/12/26 01:57:44;;;;;;;8.85;4.30;;;;;;;-142.57;100.00;55998.06;4937924;29;20031;-77
2023/12/26 02:00:11;;;;;;;10.40;4.13;;;;;;;-142.57;100.00;55985.94;4950375;29;20084;-78
2023/12/26 02:02:42;;;;;;;8.55;3.88;;;;;;;-142.57;100.00;55985.94;4955489;28;20062;-78
2023/12/26 02:05:10;;;;;;;17.60;4.60;;;;;;;-142.57;100.00;55959.66;4957610;29;20039;-78
2023/12/26 02:07:36;;;;;;;9.18;3.45;;;;;;;-142.57;100.00;55967.75;4953559;29;20055;-80
2023/12/26 02:10:04;;;;;;;8.05;3.75;;;;;;;-142.57;100.00;55969.78;4943868;29;20050;-79
2023/12/26 02:12:30;;;;;;;9.50;3.53;;;;;;;-142.57;100.00;55975.84;4951057;29;20118;-78
2023/12/26 02:14:57;;;;;;;9.25;3.25;;;;;;;-142.57;100.00;55959.66;4934998;29;20411;-78
2023/12/26 02:17:25;;;;;;;9.73;3.60;;;;;;;-142.57;100.00;55931.38;4946762;28;20113;-82
2023/12/26 02:19:51;;;;;;;9.43;2.90;;;;;;;-142.57;100.00;55947.53;4953563;28;20065;-83
2023/12/26 02:22:17;;;;;;;7.50;3.47;;;;;;;-142.57;100.00;55975.84;4952193;29;20031;-85
2023/12/26 02:24:43;;;;;;;7.03;2.80;;;;;;;-142.57;100.00;55949.56;4954391;28;20035;-82
2023/12/26 02:27:24;;;;;;;8.70;3.33;;;;;;;-142.57;100.00;55933.41;4951419;29;20035;-81
2023/12/26 02:29:53;;;;;;;14.20;4.00;;;;;;;-142.57;100.00;55895.00;4933935;29;20513;-85
2023/12/26 02:32:22;;;;;;;15.68;4.43;;;;;;;-142.57;100.00;55909.16;4934365;29;20043;-83
2023/12/26 02:34:54;;;;;;;9.25;3.90;;;;;;;-142.57;100.00;55915.22;4952831;29;20043;-81
2023/12/26 02:37:24;;;;;;;12.80;3.42;;;;;;;-142.57;100.00;55890.97;4951583;29;20038;-81
2023/12/26 02:39:50;;;;;;;7.53;2.78;;;;;;;-142.57;100.00;55890.97;4951587;28;20054;-78
2023/12/26 02:42:21;;;;;;;12.05;3.13;;;;;;;-142.57;100.00;55917.22;4948216;29;20048;-84
2023/12/26 02:44:47;;;;;;;10.18;2.60;;;;;;;-142.57;100.00;55943.50;4943774;29;20118;-80
2023/12/26 02:47:14;;;;;;;7.05;2.90;;;;;;;-142.57;100.00;55971.78;4954093;29;20125;-81
2023/12/26 02:49:39;;;;;;;10.23;3.35;;;;;;;-142.57;100.00;55971.78;4952077;28;20161;-81
2023/12/26 02:52:05;;;;;;;7.18;2.90;;;;;;;-142.57;100.00;55971.78;4935633;29;20031;-79
2023/12/26 02:54:31;;;;;;;12.38;3.25;;;;;;;-142.57;100.00;55945.53;4945911;28;20067;-80
2023/12/26 02:56:56;;;;;;;11.20;3.83;;;;;;;-142.57;100.00;55949.56;4937252;29;20079;-82
2023/12/26 02:59:22;;;;;;;9.40;3.25;;;;;;;-142.57;100.00;56000.06;4938914;29;20102;-81
2023/12/26 03:01:50;;;;;;;6.70;3.28;;;;;;;-142.57;100.00;55919.25;4934618;29;20035;-84
2023/12/26 03:04:16;;;;;;;9.85;3.63;;;;;;;-142.57;100.00;55925.31;4933614;29;20370;-83
2023/12/26 03:06:42;;;;;;;10.63;3.35;;;;;;;-142.57;100.00;55890.97;4937963;29;20111;-83
2023/12/26 03:09:08;;;;;;;19.55;3.33;;;;;;;-142.57;100.00;55890.97;4952605;29;20036;-82
2023/12/26 03:11:34;;;;;;;9.90;3.28;;;;;;;-142.57;100.00;55882.88;4951125;29;20035;-85
2023/12/26 03:14:01;;;;;;;8.60;3.35;;;;;;;-142.57;100.00;55921.28;4954032;28;20036;-85
2023/12/26 03:16:27;;;;;;;12.07;3.42;;;;;;;-142.57;100.00;55890.97;4952894;28;20079;-83
2023/12/26 03:18:52;;;;;;;7.18;2.92;;;;;;;-142.57;100.00;55935.41;4944483;29;20043;-82
2023/12/26 03:21:18;;;;;;;12.25;2.72;;;;;;;-142.57;100.00;55953.59;4956554;28;20081;-85
2023/12/26 03:23:43;;;;;;;8.50;2.97;;;;;;;-142.57;100.00;55935.41;4941413;28;20051;-81
2023/12/26 03:26:09;;;;;;;7.90;2.75;;;;;;;-142.57;100.00;55890.97;4952281;29;20067;-82
2023/12/26 03:28:35;;;;;;;14.02;3.30;;;;;;;-142.57;100.00;55949.56;4936049;29;20031;-81
2023/12/26 03:31:04;;;;;;;4.65;2.67;;;;;;;-142.57;100.00;55935.41;4937287;29;20090;-82
2023/12/26 03:33:30;;;;;;;13.02;3.20;;;;;;;-142.57;100.00;55931.38;4937994;29;20122;-84
2023/12/26 03:35:57;;;;;;;7.45;2.53;;;;;;;-142.57;100.00;55939.47;4935692;29;20097;-84
2023/12/26 03:38:23;;;;;;;10.77;3.38;;;;;;;-142.57;100.00;55947.53;4938188;29;20032;-84
2023/12/26 03:40:48;;;;;;;10.95;2.80;;;;;;;-142.57;100.00;55955.63;4937596;29;20040;-84
2023/12/26 03:43:16;;;;;;;8.73;3.15;;;;;;;-142.57;100.00;55935.41;4937566;29;20052;-80
2023/12/26 03:45:43;;;;;;;10.80;3.05;;;;;;;-142.57;100.00;55923.28;4951563;29;20047;-82
2023/12/26 03:48:09;;;;;;;12.98;3.83;;;;;;;-142.57;100.00;55919.25;4953927;29;20055;-84
2023/12/26 03:50:34;;;;;;;11.60;3.38;;;;;;;-142.57;100.00;55935.41;4955695;29;20051;-83
2023/12/26 03:53:00;;;;;;;8.43;2.90;;;;;;;-142.57;100.00;55899.03;4932308;29;20451;-83
2023/12/26 03:55:26;;;;;;;9.68;2.65;;;;;;;-142.57;100.00;55923.28;4935939;29;20030;-83
2023/12/26 03:57:51;;;;;;;8.75;2.40;;;;;;;-142.57;100.00;55943.50;4935211;29;20114;-83
2023/12/26 04:00:17;;;;;;;8.68;3.08;;;;;;;-142.57;100.00;55943.50;4953810;29;20118;-84
2023/12/26 04:02:43;;;;;;;12.27;3.60;;;;;;;-142.57;100.00;55886.91;4946857;29;20043;-85
2023/12/26 04:05:12;;;;;;;9.23;3.20;;;;;;;-142.57;100.00;55897.03;4952055;29;20031;-85
2023/12/26 04:07:38;;;;;;;7.93;3.10;;;;;;;-142.57;100.00;55852.56;4934547;29;20443;-80
2023/12/26 04:10:04;;;;;;;14.02;3.17;;;;;;;-142.57;100.00;55886.91;4941433;29;20134;-82
2023/12/26 04:12:32;;;;;;;12.52;3.35;;;;;;;-142.57;100.00;55927.34;4955286;29;20485;-85
2023/12/26 04:14:57;;;;;;;10.25;2.88;;;;;;;-142.57;100.00;55886.91;4953878;29;20041;-85
2023/12/26 04:17:23;;;;;;;9.18;2.70;;;;;;;-142.57;100.00;55913.19;4951181;29;20119;-81
2023/12/26 04:19:48;;;;;;;7.80;2.60;;;;;;;-142.57;100.00;55911.16;4935967;29;20162;-81
2023/12/26 04:22:14;;;;;;;7.07;2.67;;;;;;;-142.57;100.00;55959.66;4941437;29;20042;-81
2023/12/26 04:24:40;;;;;;;6.70;2.60;;;;;;;-142.57;100.00;55955.63;4955279;29;20063;-80
2023/12/26 04:27:06;;;;;;;5.43;2.25;;;;;;;-142.57;100.00;55953.59;4942563;29;20130;-82
2023/12/26 04:29:32;;;;;;;13.25;2.80;;;;;;;-142.57;100.00;55965.72;4946170;29;20028;-83
2023/12/26 04:31:58;;;;;;;8.15;3.13;;;;;;;-142.57;100.00;55919.25;4935705;29;20563;-80
2023/12/26 04:34:23;;;;;;;6.85;2.83;;;;;;;-142.57;100.00;55965.72;4936511;29;20031;-79
2023/12/26 04:36:49;;;;;;;6.38;2.47;;;;;;;-142.57;100.00;55998.06;4935179;29;20035;-80
2023/12/26 04:39:15;;;;;;;13.45;3.03;;;;;;;-142.57;100.00;56010.19;4935288;29;20435;-80
2023/12/26 04:41:40;;;;;;;7.68;2.45;;;;;;;-142.57;100.00;56000.06;4935118;29;20035;-80
2023/12/26 04:44:06;;;;;;;12.73;3.22;;;;;;;-142.57;100.00;56008.16;4935286;29;20521;-79
2023/12/26 04:46:32;;;;;;;8.23;2.60;;;;;;;-142.57;100.00;56016.25;4928708;29;20043;-80
2023/12/26 04:48:57;;;;;;;17.30;3.28;;;;;;;-142.57;100.00;56002.09;4938621;29;20130;-81
2023/12/26 04:51:23;;;;;;;10.75;2.90;;;;;;;-142.57;100.00;55979.88;4950423;29;20023;-81
2023/12/26 04:53:51;;;;;;;10.77;3.33;;;;;;;-142.57;100.00;55971.78;4953251;29;20039;-82
2023/12/26 04:56:18;;;;;;;11.07;3.08;;;;;;;-142.57;100.00;55953.59;4952194;29;20031;-77
2023/12/26 04:58:50;;;;;;;11.98;3.28;;;;;;;-142.57;100.00;55959.66;4950890;28;20121;-80
2023/12/26 05:01:17;;;;;;;10.05;2.90;;;;;;;-142.57;100.00;55943.50;4954501;29;20398;-79
2023/12/26 05:03:43;;;;;;;14.27;2.95;;;;;;;-142.57;100.00;55913.19;4950756;29;20125;-81
2023/12/26 05:06:09;;;;;;;14.48;3.92;;;;;;;-142.57;100.00;55951.59;4944011;29;20489;-80
2023/12/26 05:08:39;;;;;;;11.88;3.35;;;;;;;-142.57;100.00;55979.88;4952960;29;20040;-79
2023/12/26 05:11:05;;;;;;;13.43;2.80;;;;;;;-142.57;100.00;55939.47;4963579;28;20043;-86
2023/12/26 05:13:32;;;;;;;13.75;2.92;;;;;;;-142.57;100.00;55955.63;4937412;29;20114;-81
2023/12/26 05:16:02;;;;;;;6.13;2.53;;;;;;;-142.57;100.00;55935.41;4938096;28;20206;-80
2023/12/26 05:18:28;;;;;;;8.75;3.10;;;;;;;-142.57;100.00;55983.91;4935414;29;20533;-81
2023/12/26 05:20:53;;;;;;;7.45;3.28;;;;;;;-142.57;100.00;55951.59;4953498;29;20039;-82
2023/12/26 05:23:19;;;;;;;8.50;2.90;;;;;;;-142.57;100.00;55947.53;4937658;29;20023;-84
2023/12/26 05:25:44;;;;;;;13.88;3.85;;;;;;;-142.57;100.00;55975.84;4934421;29;20061;-79
2023/12/26 05:28:10;;;;;;;10.13;3.03;;;;;;;-142.57;100.00;55967.75;4934764;29;20043;-83
2023/12/26 05:30:36;;;;;;;12.70;3.67;;;;;;;-142.57;100.00;55971.78;4938452;29;20111;-82
2023/12/26 05:33:01;;;;;;;9.15;3.67;;;;;;;-142.57;100.00;55969.78;4952156;29;20027;-79
2023/12/26 05:35:30;;;;;;;11.23;3.58;;;;;;;-142.57;100.00;55983.91;4945240;29;20043;-82
2023/12/26 05:37:55;;;;;;;11.80;3.10;;;;;;;-142.57;100.00;55979.88;4934111;29;20055;-82
2023/12/26 05:40:21;;;;;;;12.65;3.17;;;;;;;-142.57;100.00;56012.19;4934093;29;20036;-82
2023/12/26 05:42:47;;;;;;;10.38;3.30;;;;;;;-142.57;100.00;55947.53;4934204;29;20435;-83
2023/12/26 05:45:14;;;;;;;9.38;3.10;;;;;;;-142.57;100.00;56000.06;4931846;29;20040;-83
2023/12/26 05:47:39;;;;;;;13.77;3.45;;;;;;;-142.57;100.00;55981.88;4933282;29;20032;-84
2023/12/26 05:50:06;;;;;;;14.77;3.63;;;;;;;-142.57;100.00;55975.84;4937652;29;20036;-79
2023/12/26 05:52:31;;;;;;;12.18;3.22;;;;;;;-142.57;100.00;55992.00;4944680;29;20144;-82
2023/12/26 05:54:57;;;;;;;11.80;3.30;;;;;;;-142.57;100.00;56008.16;4934945;29;20074;-78
2023/12/26 05:57:23;;;;;;;12.75;3.60;;;;;;;-142.57;100.00;56006.13;4951827;29;20468;-82
2023/12/26 05:59:49;;;;;;;11.90;3.30;;;;;;;-142.57;100.00;56036.44;4945019;29;20032;-83
2023/12/26 06:02:14;;;;;;;9.95;3.50;;;;;;;-142.57;100.00;55994.00;4949837;29;20031;-85
2023/12/26 06:04:40;;;;;;;8.95;3.15;;;;;;;-142.57;100.00;56022.31;4945717;29;20046;-86
2023/12/26 06:07:07;;;;;;;8.00;3.75;;;;;;;-142.57;100.00;55996.03;4949399;29;20035;-84
2023/12/26 06:09:35;;;;;;;14.98;3.80;;;;;;;-142.57;100.00;56020.28;4942727;29;20070;-85
2023/12/26 06:12:01;;;;;;;7.72;3.58;;;;;;;-142.57;100.00;56048.56;4948559;29;20071;-84
2023/12/26 06:14:26;;;;;;;12.23;3.55;;;;;;;-142.57;100.00;56093.03;4939064;29;20034;-85
2023/12/26 06:16:52;;;;;;;10.35;3.58;;;;;;;-142.57;100.00;56068.78;4938454;29;20134;-85
2023/12/26 06:19:21;;;;;;;11.20;3.97;;;;;;;-142.57;100.00;56101.13;4937203;29;20036;-86
2023/12/26 06:21:49;;;;;;;12.65;3.67;;;;;;;-142.57;100.00;56093.03;4935444;29;20123;-83
2023/12/26 06:24:15;;;;;;;12.75;3.75;;;;;;;-142.57;100.00;56064.75;4938089;29;20191;-85
2023/12/26 06:26:40;;;;;;;7.03;3.05;;;;;;;-142.57;100.00;56072.81;4938928;28;20110;-79
2023/12/26 06:29:06;;;;;;;15.43;4.70;;;;;;;-142.57;100.00;56109.19;4939027;29;20039;-84
2023/12/26 06:31:32;;;;;;;12.55;4.38;;;;;;;-142.57;100.00;56068.78;4938338;29;20463;-78
2023/12/26 06:33:58;;;;;;;6.55;2.97;;;;;;;-142.57;100.00;56125.38;4949208;29;20054;-84
2023/12/26 06:36:27;;;;;;;8.55;3.35;;;;;;;-142.57;100.00;56139.50;4943926;29;20043;-87
2023/12/26 06:38:56;;;;;;;17.92;4.25;;;;;;;-142.57;100.00;56117.28;4940398;29;20036;-85
2023/12/26 06:41:22;;;;;;;17.00;4.20;;;;;;;-142.57;100.00;56141.53;4938089;29;20390;-79
2023/12/26 06:43:48;;;;;;;6.68;3.25;;;;;;;-142.57;100.00;56076.88;4947538;29;20058;-81
2023/12/26 06:46:14;;;;;;;11.65;3.50;;;;;;;-142.57;100.00;56093.03;4946018;29;20083;-83
2023/12/26 06:48:42;;;;;;;11.35;3.78;;;;;;;-142.57;100.00;56121.31;4953148;29;20043;-83
2023/12/26 06:51:08;;;;;;;17.85;3.97;;;;;;;-142.57;100.00;56141.53;4937735;29;20465;-86
2023/12/26 06:53:34;;;;;;;13.15;4.60;;;;;;;-142.57;100.00;56167.78;4940759;29;20127;-81
2023/12/26 06:56:04;;;;;;;17.17;4.07;;;;;;;-142.57;100.00;56159.72;4937555;29;20054;-84
2023/12/26 06:58:30;;;;;;;13.00;3.75;;;;;;;-142.57;100.00;56165.78;4943375;28;20170;-81
2023/12/26 07:00:55;;;;;;;12.57;4.07;;;;;;;-142.57;100.00;56183.97;4936118;29;20119;-83
2023/12/26 07:03:21;;;;;;;17.85;3.95;;;;;;;-142.57;100.00;56222.34;4953391;29;20102;-82
2023/12/26 07:05:47;;;;;;;13.60;3.90;;;;;;;-142.57;100.00;56250.66;4937776;29;20040;-84
2023/12/26 07:08:13;;;;;;;17.15;4.13;;;;;;;-142.57;100.00;56242.56;4939934;29;20027;-87
2023/12/26 07:10:38;;;;;;;13.23;3.58;;;;;;;-142.57;100.00;56234.47;4945558;29;20035;-81
2023/12/26 07:13:04;;;;;;;17.30;3.97;;;;;;;-142.57;100.00;56319.34;4936267;29;20042;-84
2023/12/26 07:15:30;;;;;;;14.07;4.45;;;;;;;-142.57;100.00;56291.06;4951063;29;20050;-88
2023/12/26 07:17:55;;;;;;;17.90;3.58;;;;;;;-142.57;100.00;56250.66;4946497;28;20483;-81
2023/12/26 07:20:21;;;;;;;12.70;3.85;;;;;;;-142.57;100.00;56311.28;4942152;29;20032;-82
2023/12/26 07:22:46;;;;;;;15.13;5.28;;;;;;;-142.57;100.00;56303.19;4942668;28;20135;-85
2023/12/26 07:25:12;;;;;;;20.10;5.50;;;;;;;-142.57;100.00;56280.97;4940770;29;20032;-84
2023/12/26 07:27:37;;;;;;;19.40;6.05;;;;;;;-142.57;100.00;56311.28;4937595;29;20046;-84
2023/12/26 07:30:03;;;;;;;16.35;6.50;;;;;;;-142.57;100.00;56319.34;4948120;29;20027;-81
2023/12/26 07:32:29;;;;;;;20.63;6.72;;;;;;;-142.57;100.00;56319.34;4934901;28;20064;-82
2023/12/26 07:34:54;;;;;;;23.20;7.68;;;;;;;-142.57;100.00;56351.69;4941064;29;20561;-83
2023/12/26 07:37:20;;;;;;;29.98;6.95;;;;;;;-142.57;100.00;56416.34;4947632;29;20371;-85
2023/12/26 07:39:45;;;;;;;41.95;7.40;;;;;;;-142.57;100.00;56472.94;4954594;28;20039;-83
2023/12/26 07:42:11;;;;;;;32.83;7.05;;;;;;;-142.57;100.00;56349.66;4953558;29;20059;-84
2023/12/26 07:44:37;;;;;;;32.70;7.15;;;;;;;-142.57;100.00;56252.66;4938272;29;20406;-80
2023/12/26 07:47:03;;;;;;;24.33;7.40;;;;;;;-142.57;100.00;56198.09;4940900;29;20122;-82
2023/12/26 07:49:29;;;;;;;21.92;6.20;;;;;;;-142.57;100.00;56190.03;4955513;28;20035;-82
2023/12/26 07:51:55;;;;;;;22.38;7.93;;;;;;;-142.57;100.00;56125.38;4942635;28;20104;-81
2023/12/26 07:54:21;;;;;;;24.20;7.68;;;;;;;-142.57;100.00;56133.44;4938500;28;20467;-82
2023/12/26 07:57:09;;;;;;;20.23;8.45;;;;;;;-142.57;100.00;56084.94;4945593;29;20034;-81
2023/12/26 07:59:35;;;;;;;21.45;6.50;;;;;;;-142.57;100.00;56117.28;4957978;28;20040;-80
2023/12/26 08:02:01;;;;;;;123.13;12.40;;;;;;;-142.57;100.00;56165.78;4959856;28;20039;-82
2023/12/26 08:04:26;;;;;;;319.10;20.10;;;;;;;-142.57;100.00;56262.78;4952992;29;20032;-81
2023/12/26 08:06:52;;;;;;;113.38;12.80;;;;;;;-142.57;100.00;56210.22;4941611;29;20039;-84
2023/12/26 08:09:17;;;;;;;259.83;35.50;;;;;;;-142.57;100.00;56238.53;4942962;29;20040;-85
2023/12/26 08:11:43;;;;;;;279.25;24.60;;;;;;;-142.57;100.00;56285.00;4939116;29;20479;-86
2023/12/26 08:14:09;;;;;;;58.83;9.82;;;;;;;-142.57;100.00;56254.69;4939257;29;20447;-85
2023/12/26 08:16:35;;;;;;;136.13;14.52;;;;;;;-142.57;100.00;56291.06;4955309;29;20042;-81
2023/12/26 08:19:02;;;;;;;80.18;12.38;;;;;;;-142.57;100.00;56319.34;4940240;29;20039;-87
2023/12/26 08:21:27;;;;;;;87.80;12.00;;;;;;;-142.57;100.00;56313.28;4939501;29;20107;-85
2023/12/26 08:23:53;;;;;;;105.97;13.02;;;;;;;-142.57;100.00;56325.41;4943336;29;20423;-85
2023/12/26 08:26:29;;;;;;;77.72;10.98;;;;;;;-142.57;100.00;56341.59;4946276;29;20032;-87
2023/12/26 08:28:55;;;;;;;71.60;10.25;;;;;;;-142.57;100.00;56367.84;4939075;29;20035;-80
2023/12/26 08:31:21;;;;;;;30.83;7.68;;;;;;;-142.57;100.00;56400.19;4949680;28;20026;-83
2023/12/26 08:33:46;;;;;;;119.00;12.43;;;;;;;-142.57;100.00;56379.97;4945357;29;20035;-82
2023/12/26 08:36:12;;;;;;;80.47;10.95;;;;;;;-142.57;100.00;56420.41;4942494;29;20040;-83
2023/12/26 08:38:39;;;;;;;342.65;21.60;;;;;;;-142.57;100.00;56396.16;4941746;28;20031;-83
2023/12/26 08:41:06;;;;;;;205.85;15.48;;;;;;;-142.57;100.00;56412.31;4958852;29;20048;-84
2023/12/26 08:43:32;;;;;;;175.15;17.30;;;;;;;-142.57;100.00;56410.28;4951234;29;20100;-86
2023/12/26 08:45:58;;;;;;;167.48;14.75;;;;;;;-142.57;100.00;56428.47;4941157;29;20046;-84
2023/12/26 08:48:24;;;;;;;164.23;18.83;;;;;;;-142.57;100.00;56440.59;4946334;29;20042;-87
2023/12/26 08:50:49;;;;;;;93.35;13.05;;;;;;;-142.57;100.00;56452.75;4939228;29;20031;-83
2023/12/26 08:53:15;;;;;;;155.35;31.15;;;;;;;-142.57;100.00;56521.44;4940725;29;20052;-83
2023/12/26 08:55:45;;;;;;;97.40;16.90;;;;;;;-142.57;100.00;56505.28;4942413;29;20058;-84
2023/12/26 08:58:11;;;;;;;70.25;13.38;;;;;;;-142.57;100.00;56513.38;4949883;28;20040;-84
2023/12/26 09:00:37;;;;;;;31.15;6.28;;;;;;;-142.57;100.00;56529.53;4940778;29;20035;-83
2023/12/26 09:03:02;;;;;;;74.88;9.25;;;;;;;-142.57;100.00;56563.88;4950192;28;20120;-83
2023/12/26 09:05:28;;;;;;;181.18;14.13;;;;;;;-142.57;100.00;56521.44;4948949;29;20435;-81
2023/12/26 09:07:53;;;;;;;29.90;5.35;;;;;;;-142.57;100.00;56521.44;4938192;29;20036;-82
2023/12/26 09:10:19;;;;;;;42.75;7.10;;;;;;;-142.57;100.00;56541.66;4937255;29;20079;-84
2023/12/26 09:12:45;;;;;;;54.92;8.25;;;;;;;-142.57;100.00;56519.44;4943981;28;20375;-81
2023/12/26 09:15:11;;;;;;;130.68;14.60;;;;;;;-142.57;100.00;56571.97;4951722;29;20403;-83
2023/12/26 09:17:37;;;;;;;128.15;13.38;;;;;;;-142.57;100.00;56529.53;4944376;29;20050;-88
2023/12/26 09:20:03;;;;;;;57.40;8.00;;;;;;;-142.57;100.00;56543.69;4944839;29;20423;-86
2023/12/26 09:22:30;;;;;;;62.53;8.05;;;;;;;-142.57;100.00;56561.88;4941446;29;20035;-80
2023/12/26 09:24:55;;;;;;;18.25;4.50;;;;;;;-142.57;100.00;56517.41;4964269;29;20074;-81
2023/12/26 09:27:21;;;;;;;20.10;5.07;;;;;;;-142.57;100.00;56511.34;4947460;29;20067;-82
2023/12/26 09:29:46;;;;;;;17.08;5.35;;;;;;;-142.57;100.00;56489.13;4932839;29;20035;-85
2023/12/26 09:32:12;;;;;;;39.08;7.75;;;;;;;-142.57;100.00;56497.19;4944928;29;20027;-81
2023/12/26 09:34:38;;;;;;;20.60;6.07;;;;;;;-142.57;100.00;56509.31;4940071;28;20032;-80
2023/12/26 09:37:03;;;;;;;15.05;6.25;;;;;;;-142.57;100.00;56487.09;4943093;28;20457;-85
2023/12/26 09:39:29;;;;;;;19.30;5.93;;;;;;;-142.57;100.00;56513.38;4954584;28;20078;-82
2023/12/26 09:41:56;;;;;;;16.95;5.10;;;;;;;-142.57;100.00;56503.25;4939009;29;20031;-82
2023/12/26 09:44:22;;;;;;;58.72;27.23;;;;;;;-142.57;100.00;56527.50;4953408;28;20402;-81
2023/12/26 09:46:48;;;;;;;23.17;6.38;;;;;;;-142.57;100.00;56493.16;4964403;29;20058;-83
2023/12/26 09:49:15;;;;;;;59.55;21.55;;;;;;;-142.57;100.00;56557.81;4962572;29;20351;-83
2023/12/26 09:51:44;;;;;;;41.35;13.98;;;;;;;-142.57;100.00;56565.91;4962228;28;20491;-83
2023/12/26 09:54:12;;;;;;;81.47;15.07;;;;;;;-142.57;100.00;56525.50;4937657;29;20082;-87
2023/12/26 09:56:43;;;;;;;66.20;9.75;;;;;;;-142.57;100.00;56513.38;4945850;29;20089;-86
2023/12/26 09:59:10;;;;;;;41.75;7.53;;;;;;;-142.57;100.00;56489.13;4940683;29;20047;-86
2023/12/26 10:01:35;;;;;;;87.97;9.98;;;;;;;-142.57;100.00;56535.59;4937124;29;22025;-82
2023/12/26 10:04:05;;;;;;;59.38;8.95;;;;;;;-142.57;100.00;56561.88;4952877;29;20047;-84
2023/12/26 10:06:31;;;;;;;72.00;9.32;;;;;;;-142.57;100.00;56529.53;4956013;28;20050;-84
2023/12/26 10:08:57;;;;;;;36.67;6.85;;;;;;;-142.57;100.00;56525.50;4955838;29;20035;-83
2023/12/26 10:11:24;;;;;;;40.75;7.22;;;;;;;-142.57;100.00;56545.69;4956110;28;20031;-79
2023/12/26 10:13:52;;;;;;;44.33;6.80;;;;;;;-142.57;100.00;56529.53;4956267;29;20130;-83
2023/12/26 10:16:18;;;;;;;34.58;5.68;;;;;;;-142.57;100.00;56549.75;4961168;28;20103;-79
2023/12/26 10:18:44;;;;;;;32.70;5.93;;;;;;;-142.57;100.00;56549.75;4976520;28;20035;-80
2023/12/26 10:21:09;;;;;;;18.17;5.78;;;;;;;-142.57;100.00;56578.03;4972716;29;20066;-83
2023/12/26 10:23:35;;;;;;;63.22;7.72;;;;;;;-142.57;100.00;56602.28;4956402;28;20624;-83
2023/12/26 10:26:02;;;;;;;50.85;7.18;;;;;;;-142.57;100.00;56604.31;4955411;28;20076;-78
2023/12/26 10:28:30;;;;;;;36.28;7.22;;;;;;;-142.57;100.00;56646.75;4955542;28;20046;-78
2023/12/26 10:30:56;;;;;;;24.85;6.93;;;;;;;-142.57;100.00;56687.16;4955923;28;20126;-81
2023/12/26 10:33:28;;;;;;;25.75;8.15;;;;;;;-142.57;100.00;56671.00;4955559;28;20082;-80
2023/12/26 10:36:00;;;;;;;;;;;;;;;-142.57;100.00;56723.53;4956777;28;20039;-83
2023/12/26 10:38:26;;;;;;;20.08;6.88;;;;;;;-142.57;100.00;56699.28;4957975;28;20441;-79
2023/12/26 10:40:55;;;;;;;36.30;8.90;;;;;;;-142.57;100.00;56733.66;4957502;28;20062;-83
2023/12/26 10:43:26;;;;;;;25.02;7.07;;;;;;;-142.57;100.00;56723.53;4958937;28;20046;-81
2023/12/26 10:45:54;;;;;;;49.38;12.43;;;;;;;-142.57;100.00;56763.97;4957479;28;20039;-82
2023/12/26 10:48:20;;;;;;;54.53;14.57;;;;;;;-142.57;100.00;56784.19;4957906;28;20043;-83
2023/12/26 10:50:48;;;;;;;49.53;10.07;;;;;;;-142.57;100.00;56768.00;4963399;28;20094;-83
2023/12/26 10:53:16;;;;;;;64.20;13.32;;;;;;;-142.57;100.00;56772.06;4966598;29;20039;-83
2023/12/26 10:55:46;;;;;;;44.65;10.77;;;;;;;-142.57;100.00;56782.16;4965523;28;20043;-82
2023/12/26 10:58:23;;;;;;;106.05;22.50;;;;;;;-142.57;100.00;56824.59;4962871;29;20178;-86